Time;durP1;ratioP1;P1;durP2;ratioP2;P2;SDS_P1;SDS_P2;PMS_P1;PMS_P2;Temp;Humidity;BMP_temperature;BMP_pressure;BME280_temperature;BME280_humidity;BME280_pressure;Samples;Min_cycle;Max_cycle;Signal;HPM_P1;HPM_P2
2022/09/01 00:00:40;;;;;;;2.97;1.65;;;12.70;99.90;;;;;;5115311;28;20463;-77
2022/09/01 00:03:09;;;;;;;1.92;1.60;;;12.80;99.90;;;;;;5115046;28;20075;-76
2022/09/01 00:05:35;;;;;;;0.95;0.90;;;12.80;99.90;;;;;;5115195;28;20027;-77
2022/09/01 00:08:02;;;;;;;2.25;1.67;;;12.80;99.90;;;;;;5115195;28;20031;-76
2022/09/01 00:10:28;;;;;;;1.77;1.67;;;12.80;99.90;;;;;;5115241;28;20433;-75
2022/09/01 00:12:54;;;;;;;1.25;1.10;;;12.80;99.90;;;;;;5096827;28;20064;-76
2022/09/01 00:15:20;;;;;;;1.48;1.40;;;12.80;99.90;;;;;;5115259;28;20027;-73
2022/09/01 00:17:46;;;;;;;1.23;1.23;;;12.80;99.90;;;;;;5114977;28;20384;-76
2022/09/01 00:20:11;;;;;;;4.10;2.33;;;12.80;99.90;;;;;;5114978;28;20030;-76
2022/09/01 00:22:37;;;;;;;1.95;1.77;;;12.80;99.90;;;;;;5114761;28;20205;-72
2022/09/01 00:25:04;;;;;;;1.40;1.05;;;12.80;99.90;;;;;;5114841;28;20027;-76
2022/09/01 00:27:31;;;;;;;1.73;1.45;;;12.80;99.90;;;;;;5114933;28;20028;-76
2022/09/01 00:29:57;;;;;;;1.08;0.98;;;12.80;99.90;;;;;;5114597;28;20035;-76
2022/09/01 00:32:24;;;;;;;1.27;1.17;;;12.80;99.90;;;;;;5114833;28;20030;-76
2022/09/01 00:34:49;;;;;;;2.05;1.90;;;12.90;99.90;;;;;;5114709;28;20016;-75
2022/09/01 00:37:16;;;;;;;2.28;1.58;;;13.00;99.90;;;;;;5114475;28;20016;-77
2022/09/01 00:39:42;;;;;;;1.45;1.08;;;13.10;99.90;;;;;;5114479;28;20460;-75
2022/09/01 00:42:08;;;;;;;1.95;1.63;;;13.10;99.90;;;;;;5114537;28;20057;-76
2022/09/01 00:44:35;;;;;;;1.10;1.00;;;13.20;99.90;;;;;;5114484;28;20027;-75
2022/09/01 00:47:01;;;;;;;2.20;2.03;;;13.20;99.90;;;;;;5114471;28;20059;-76
2022/09/01 00:49:38;;;;;;;1.85;1.27;;;13.10;99.90;;;;;;5114370;28;20071;-77
2022/09/01 00:52:30;;;;;;;12.88;2.13;;;13.10;99.90;;;;;;5114383;28;20058;-76
2022/09/01 00:55:00;;;;;;;1.42;1.33;;;13.00;99.90;;;;;;5097572;28;20019;-76
2022/09/01 00:57:26;;;;;;;1.83;1.52;;;13.00;99.90;;;;;;5113451;28;20019;-76
2022/09/01 00:59:57;;;;;;;0.80;0.80;;;13.00;99.90;;;;;;5114178;28;20298;-76
2022/09/01 01:02:25;;;;;;;1.33;1.23;;;13.10;99.90;;;;;;5114075;28;20062;-74
2022/09/01 01:04:51;;;;;;;2.05;1.95;;;13.10;99.90;;;;;;5114190;28;20054;-75
2022/09/01 01:07:21;;;;;;;3.13;2.45;;;13.10;99.90;;;;;;5114326;28;20121;-75
2022/09/01 01:09:49;;;;;;;4.10;3.78;;;13.20;99.90;;;;;;5095760;28;20027;-76
2022/09/01 01:12:17;;;;;;;2.22;2.10;;;13.20;99.90;;;;;;5114292;28;20027;-76
2022/09/01 01:14:45;;;;;;;1.85;1.50;;;13.30;99.90;;;;;;5113987;28;20035;-76
2022/09/01 01:17:11;;;;;;;2.30;1.90;;;13.30;99.90;;;;;;5114083;28;20023;-74
2022/09/01 01:25:21;;;;;;;4.05;2.58;;;13.20;99.90;;;;;;5114362;28;20530;-77
2022/09/01 01:27:46;;;;;;;4.20;1.88;;;13.20;99.90;;;;;;5113885;28;20027;-74
2022/09/01 01:30:13;;;;;;;1.42;1.33;;;13.20;99.90;;;;;;5113857;28;20031;-75
2022/09/01 01:32:42;;;;;;;4.30;2.58;;;13.20;99.90;;;;;;5095827;28;20414;-76
2022/09/01 01:35:13;;;;;;;1.60;1.60;;;13.30;99.90;;;;;;5113714;28;20489;-76
2022/09/01 01:37:44;;;;;;;6.10;2.60;;;13.30;99.90;;;;;;5113795;28;20134;-76
2022/09/01 01:40:14;;;;;;;5.22;2.53;;;13.30;99.90;;;;;;5113877;28;20399;-77
2022/09/01 01:42:44;;;;;;;6.10;3.65;;;13.40;99.90;;;;;;5113680;28;20019;-76
2022/09/01 01:45:11;;;;;;;3.13;2.67;;;13.40;99.90;;;;;;5114067;28;20098;-76
2022/09/01 01:47:38;;;;;;;3.90;2.97;;;13.40;99.90;;;;;;5114031;28;20102;-75
2022/09/01 01:50:08;;;;;;;4.25;2.30;;;13.40;99.90;;;;;;5113698;28;20059;-76
2022/09/01 01:52:35;;;;;;;2.30;1.88;;;13.40;99.90;;;;;;5114262;28;20028;-76
2022/09/01 01:55:01;;;;;;;4.68;2.13;;;13.40;99.90;;;;;;5113854;28;20031;-77
2022/09/01 01:57:30;;;;;;;4.95;3.92;;;13.30;99.90;;;;;;5113528;28;20024;-76
2022/09/01 01:59:57;;;;;;;3.05;2.88;;;13.30;99.90;;;;;;5113709;28;20057;-75
2022/09/01 02:02:23;;;;;;;3.08;2.88;;;13.30;99.90;;;;;;5095217;28;20450;-77
2022/09/01 02:04:48;;;;;;;4.97;3.50;;;13.30;99.90;;;;;;5113598;28;20164;-74
2022/09/01 02:07:14;;;;;;;3.60;2.95;;;13.30;99.90;;;;;;5113634;28;20152;-76
2022/09/01 02:09:44;;;;;;;2.67;1.50;;;13.30;99.90;;;;;;5117286;28;20118;-74
2022/09/01 02:12:10;;;;;;;4.00;1.98;;;13.30;99.90;;;;;;5117304;28;20016;-76
2022/09/01 02:14:37;;;;;;;2.03;1.85;;;13.30;99.90;;;;;;5117333;28;20034;-76
2022/09/01 02:17:06;;;;;;;4.78;1.88;;;13.30;99.90;;;;;;5117411;28;20019;-76
2022/09/01 02:19:35;;;;;;;1.98;1.50;;;13.30;99.90;;;;;;5117359;28;20111;-75
2022/09/01 02:22:01;;;;;;;3.78;2.63;;;13.40;99.90;;;;;;5117295;28;20024;-74
2022/09/01 02:24:30;;;;;;;4.35;1.33;;;13.40;99.90;;;;;;5117382;28;20030;-75
2022/09/01 02:26:58;;;;;;;3.17;2.42;;;13.30;99.90;;;;;;5098930;28;20027;-76
2022/09/01 02:29:28;;;;;;;2.75;1.92;;;13.20;99.90;;;;;;5117091;28;20055;-75
2022/09/01 02:31:55;;;;;;;2.83;2.45;;;13.20;99.90;;;;;;5117110;28;20015;-76
2022/09/01 02:34:22;;;;;;;2.97;1.75;;;13.20;99.90;;;;;;5116951;28;20369;-76
2022/09/01 02:36:50;;;;;;;1.42;1.33;;;13.20;99.90;;;;;;5116982;28;20364;-76
2022/09/01 02:39:23;;;;;;;4.97;1.50;;;13.10;99.90;;;;;;5116915;28;20081;-74
2022/09/01 02:41:50;;;;;;;5.07;2.40;;;13.10;99.90;;;;;;5098615;28;20074;-76
2022/09/01 02:44:18;;;;;;;1.33;1.27;;;13.00;99.90;;;;;;5098676;28;20028;-74
2022/09/01 02:46:45;;;;;;;3.05;1.98;;;12.90;99.90;;;;;;5116757;28;20039;-76
2022/09/01 02:49:16;;;;;;;3.72;2.42;;;12.80;99.90;;;;;;5116604;28;20498;-74
2022/09/01 02:51:43;;;;;;;1.63;1.52;;;12.70;99.90;;;;;;5116604;28;20030;-76
2022/09/01 02:54:12;;;;;;;2.75;2.53;;;12.60;99.90;;;;;;5116775;28;20030;-75
2022/09/01 02:56:38;;;;;;;4.55;2.90;;;12.50;99.90;;;;;;5116468;28;20046;-75
2022/09/01 02:59:04;;;;;;;3.10;2.60;;;12.40;99.90;;;;;;5116803;28;20472;-76
2022/09/01 03:01:32;;;;;;;2.60;2.35;;;12.30;99.90;;;;;;5116484;28;20107;-71
2022/09/01 03:04:01;;;;;;;3.00;2.25;;;12.20;99.90;;;;;;5098648;28;20039;-76
2022/09/01 03:06:29;;;;;;;3.03;2.22;;;12.10;99.90;;;;;;5116664;28;20023;-75
2022/09/01 03:09:00;;;;;;;2.55;2.28;;;12.00;99.90;;;;;;5116066;28;20028;-77
2022/09/01 03:11:28;;;;;;;3.15;2.85;;;11.90;99.90;;;;;;5116285;28;20065;-76
2022/09/01 03:13:55;;;;;;;6.80;3.33;;;11.80;99.90;;;;;;5116345;28;20024;-75
2022/09/01 03:16:23;;;;;;;3.45;2.35;;;11.90;99.90;;;;;;5116294;28;20019;-76
2022/09/01 03:18:49;;;;;;;5.20;3.70;;;11.80;99.90;;;;;;5116166;28;20031;-77
2022/09/01 03:21:15;;;;;;;2.00;1.35;;;11.80;99.90;;;;;;5097135;28;20055;-76
2022/09/01 03:23:43;;;;;;;2.28;2.17;;;11.70;99.90;;;;;;5116298;28;20426;-77
2022/09/01 03:26:10;;;;;;;5.38;1.77;;;11.60;99.90;;;;;;5115957;28;20076;-76
2022/09/01 03:28:39;;;;;;;5.15;2.85;;;11.60;99.90;;;;;;5116001;28;20028;-75
2022/09/01 03:31:06;;;;;;;2.35;1.88;;;11.50;99.90;;;;;;5097835;28;20015;-76
2022/09/01 03:33:33;;;;;;;5.18;3.00;;;11.50;99.90;;;;;;5115863;28;20034;-76
2022/09/01 03:35:59;;;;;;;2.63;2.25;;;11.50;99.90;;;;;;5115868;28;20024;-75
2022/09/01 03:38:26;;;;;;;6.93;2.78;;;11.50;99.90;;;;;;5097588;28;20035;-77
2022/09/01 03:41:03;;;;;;;2.92;2.55;;;11.50;99.90;;;;;;5115828;28;20102;-76
2022/09/01 03:43:30;;;;;;;2.60;2.42;;;11.50;99.90;;;;;;5115540;28;20023;-76
2022/09/01 03:46:01;;;;;;;4.97;2.22;;;11.40;99.90;;;;;;5115620;28;20480;-76
2022/09/01 03:48:30;;;;;;;2.85;2.65;;;11.30;99.90;;;;;;5115528;28;20072;-75
2022/09/01 03:51:01;;;;;;;2.00;1.10;;;11.30;99.90;;;;;;5115632;28;20019;-76
2022/09/01 03:53:29;;;;;;;2.65;2.35;;;11.20;99.90;;;;;;5115517;28;20027;-76
2022/09/01 03:55:56;;;;;;;3.92;1.88;;;11.20;99.90;;;;;;5115442;28;20020;-75
2022/09/01 03:58:23;;;;;;;1.60;1.50;;;11.30;99.90;;;;;;5115305;28;20102;-73
2022/09/01 04:00:54;;;;;;;1.85;1.45;;;11.20;99.90;;;;;;5115179;28;20020;-75
2022/09/01 04:03:25;;;;;;;3.13;2.22;;;11.20;99.90;;;;;;5115053;28;20552;-73
2022/09/01 04:05:55;;;;;;;3.97;2.08;;;11.20;99.90;;;;;;5115204;28;20020;-71
2022/09/01 04:08:29;;;;;;;7.68;2.35;;;11.20;99.90;;;;;;5115123;28;20030;-75
2022/09/01 04:10:57;;;;;;;2.50;2.30;;;11.20;99.90;;;;;;5115093;28;20499;-73
2022/09/01 04:13:46;;;;;;;3.83;1.70;;;11.10;99.90;;;;;;5115102;28;20445;-74
2022/09/01 04:19:26;;;;;;;2.22;2.03;;;11.10;99.90;;;;;;5114909;28;20030;-76
2022/09/01 04:21:53;;;;;;;;;;;11.20;99.90;;;;;;5115266;28;20068;-75
2022/09/01 04:24:23;;;;;;;7.72;2.13;;;11.30;99.90;;;;;;5114963;28;19908;-74
2022/09/01 04:26:51;;;;;;;4.32;3.00;;;11.30;99.90;;;;;;5114823;28;20065;-75
2022/09/01 04:29:22;;;;;;;3.45;2.00;;;11.30;99.90;;;;;;5114787;28;20078;-76
2022/09/01 04:31:50;;;;;;;2.90;2.25;;;11.40;99.90;;;;;;5113867;28;20023;-75
2022/09/01 04:34:16;;;;;;;2.85;2.55;;;11.40;99.90;;;;;;5114634;28;20051;-75
2022/09/01 04:36:43;;;;;;;2.40;2.20;;;11.60;99.90;;;;;;5114534;28;20055;-75
2022/09/01 04:39:11;;;;;;;2.22;1.55;;;11.70;99.90;;;;;;5114554;28;20023;-73
2022/09/01 04:41:44;;;;;;;3.50;3.28;;;11.80;99.90;;;;;;5114527;28;20113;-75
2022/09/01 04:44:12;;;;;;;2.08;1.98;;;11.80;99.90;;;;;;5114834;28;20031;-73
2022/09/01 04:46:46;;;;;;;2.65;1.95;;;11.90;99.90;;;;;;5114839;28;20107;-76
2022/09/01 04:49:18;;;;;;;3.08;2.63;;;12.00;99.90;;;;;;5114431;28;20101;-75
2022/09/01 04:51:45;;;;;;;5.70;2.90;;;;;;;;;;5114672;28;20032;-76
2022/09/01 04:54:13;;;;;;;3.00;2.63;;;12.00;99.90;;;;;;5096058;28;20034;-74
2022/09/01 04:56:42;;;;;;;3.22;3.00;;;12.00;99.90;;;;;;5117425;28;20364;-72
2022/09/01 04:59:09;;;;;;;2.53;2.33;;;12.00;99.90;;;;;;5116831;28;20027;-77
2022/09/01 05:01:45;;;;;;;8.40;4.65;;;12.20;99.90;;;;;;5114997;28;20022;-77
2022/09/01 05:04:16;;;;;;;5.43;3.85;;;12.30;99.90;;;;;;5116324;28;20039;-73
2022/09/01 05:06:54;;;;;;;5.30;2.78;;;12.40;99.90;;;;;;5114573;28;20085;-76
2022/09/01 05:09:20;;;;;;;3.78;3.47;;;12.40;99.90;;;;;;5114027;28;20032;-71
2022/09/01 05:11:48;;;;;;;6.90;5.93;;;12.40;99.90;;;;;;5114087;28;20442;-72
2022/09/01 05:14:17;;;;;;;4.05;2.95;;;12.50;99.90;;;;;;5113880;28;20491;-72
2022/09/01 05:16:44;;;;;;;12.50;3.97;;;12.60;99.90;;;;;;5117517;28;20491;-72
2022/09/01 05:19:13;;;;;;;7.97;4.00;;;12.60;99.90;;;;;;5114196;28;20024;-74
2022/09/01 05:21:40;;;;;;;2.30;2.13;;;12.60;99.90;;;;;;5114062;28;20031;-73
2022/09/01 05:24:07;;;;;;;3.85;2.88;;;12.70;99.90;;;;;;5117510;28;20227;-75
2022/09/01 05:26:33;;;;;;;4.95;4.03;;;12.70;99.90;;;;;;5105958;28;20039;-74
2022/09/01 05:29:09;;;;;;;5.03;3.13;;;12.80;99.90;;;;;;5121613;28;20031;-75
2022/09/01 05:31:36;;;;;;;6.05;3.45;;;12.90;99.90;;;;;;5122732;28;20020;-72
2022/09/01 05:34:03;;;;;;;8.50;3.45;;;13.00;99.90;;;;;;5121656;28;20238;-72
2022/09/01 05:36:32;;;;;;;6.03;2.90;;;13.10;99.90;;;;;;5121243;28;20316;-76
2022/09/01 05:38:59;;;;;;;3.80;3.47;;;13.20;99.90;;;;;;5124039;28;20058;-75
2022/09/01 05:41:25;;;;;;;6.47;3.65;;;13.30;99.90;;;;;;5101839;28;20094;-75
2022/09/01 05:43:53;;;;;;;3.50;3.20;;;13.30;99.90;;;;;;5108061;28;20018;-76
2022/09/01 05:46:25;;;;;;;6.13;3.83;;;13.40;99.90;;;;;;5101698;28;20024;-76
2022/09/01 05:48:52;;;;;;;4.95;4.10;;;13.40;99.90;;;;;;5121955;28;20050;-75
2022/09/01 05:51:25;;;;;;;5.75;4.13;;;13.70;99.90;;;;;;5101352;28;20030;-76
2022/09/01 05:53:57;;;;;;;6.03;3.70;;;13.70;99.90;;;;;;5110639;28;20088;-73
2022/09/01 05:56:25;;;;;;;4.07;3.42;;;13.90;99.90;;;;;;5126126;28;20031;-76
2022/09/01 05:58:52;;;;;;;3.42;3.13;;;14.00;99.90;;;;;;5120759;28;20250;-72
2022/09/01 06:01:21;;;;;;;4.72;2.85;;;14.00;99.90;;;;;;5121698;28;20026;-72
2022/09/01 06:03:55;;;;;;;6.93;2.67;;;14.10;99.90;;;;;;5117781;28;20445;-76
2022/09/01 06:06:27;;;;;;;3.58;2.97;;;14.20;99.90;;;;;;5118696;28;20023;-72
2022/09/01 06:08:57;;;;;;;10.50;4.25;;;14.30;99.90;;;;;;5118097;28;20035;-76
2022/09/01 06:11:25;;;;;;;3.58;3.15;;;14.40;99.90;;;;;;5124695;28;20424;-76
2022/09/01 06:13:54;;;;;;;5.28;3.25;;;14.40;99.90;;;;;;5122616;28;20047;-76
2022/09/01 06:16:22;;;;;;;3.47;2.60;;;14.40;99.90;;;;;;5124605;28;20015;-76
2022/09/01 06:18:51;;;;;;;4.35;3.65;;;14.30;99.90;;;;;;5120175;28;20535;-76
2022/09/01 06:21:17;;;;;;;5.93;3.35;;;14.40;99.90;;;;;;5117481;28;20468;-72
2022/09/01 06:23:44;;;;;;;3.75;2.63;;;14.40;99.90;;;;;;5102032;28;20039;-72
2022/09/01 06:26:27;;;;;;;7.63;2.55;;;14.30;99.90;;;;;;5119534;28;20069;-75
2022/09/01 06:29:02;;;;;;;5.07;3.47;;;14.40;99.90;;;;;;5127599;28;20051;-72
2022/09/01 06:31:32;;;;;;;3.10;2.47;;;14.40;99.90;;;;;;5126706;28;20367;-73
2022/09/01 06:34:02;;;;;;;2.55;1.67;;;14.40;99.90;;;;;;5108907;28;20055;-75
2022/09/01 06:36:31;;;;;;;2.33;1.65;;;14.40;99.90;;;;;;5127584;28;20026;-74
2022/09/01 06:38:59;;;;;;;7.05;2.53;;;14.50;99.90;;;;;;5126997;28;20030;-77
2022/09/01 06:41:25;;;;;;;2.28;1.85;;;14.60;99.90;;;;;;5108906;28;20023;-76
2022/09/01 06:43:52;;;;;;;2.85;2.22;;;14.60;99.90;;;;;;5126596;28;20022;-74
2022/09/01 06:46:26;;;;;;;2.35;2.17;;;14.70;99.90;;;;;;5126552;28;20030;-74
2022/09/01 06:48:53;;;;;;;4.22;2.33;;;14.70;99.90;;;;;;5123255;28;20110;-74
2022/09/01 06:51:21;;;;;;;2.63;1.95;;;14.80;99.90;;;;;;5123385;28;20060;-72
2022/09/01 06:53:55;;;;;;;2.67;2.45;;;14.90;99.90;;;;;;5125962;28;20296;-76
2022/09/01 06:56:23;;;;;;;4.05;1.92;;;15.10;99.90;;;;;;5103795;28;20023;-77
2022/09/01 06:58:51;;;;;;;4.00;2.58;;;15.10;99.90;;;;;;5126853;28;20016;-75
2022/09/01 07:01:19;;;;;;;4.20;3.43;;;15.20;99.90;;;;;;5106582;28;20024;-72
2022/09/01 07:03:49;;;;;;;2.25;2.13;;;15.30;99.90;;;;;;5104032;28;20054;-72
2022/09/01 07:06:17;;;;;;;1.35;1.25;;;15.50;99.90;;;;;;5126683;28;20020;-76
2022/09/01 07:08:48;;;;;;;2.47;2.28;;;15.60;99.90;;;;;;5125879;28;20027;-72
2022/09/01 07:11:23;;;;;;;1.38;1.23;;;15.70;99.90;;;;;;5126915;28;20027;-73
2022/09/01 07:13:52;;;;;;;2.88;1.58;;;15.90;99.90;;;;;;5106185;28;20046;-73
2022/09/01 07:16:20;;;;;;;;;;;16.10;99.90;;;;;;5127013;28;20035;-73
2022/09/01 07:18:50;;;;;;;1.73;1.50;;;16.20;99.90;;;;;;5127026;28;19906;-71
2022/09/01 07:21:17;;;;;;;4.57;1.95;;;16.30;99.90;;;;;;5126630;28;20031;-72
2022/09/01 07:23:42;;;;;;;2.17;1.75;;;16.50;99.90;;;;;;5126726;28;20080;-76
2022/09/01 07:26:09;;;;;;;3.47;1.77;;;16.60;99.90;;;;;;5126534;28;20020;-71
2022/09/01 07:28:35;;;;;;;1.55;1.42;;;16.80;99.90;;;;;;5125675;28;20034;-72
2022/09/01 07:31:04;;;;;;;1.33;1.23;;;17.00;99.90;;;;;;5126352;28;20023;-77
2022/09/01 07:33:30;;;;;;;1.80;1.17;;;17.30;99.90;;;;;;5124081;28;20087;-72
2022/09/01 07:35:56;;;;;;;1.35;0.57;;;17.50;99.90;;;;;;5124878;28;20051;-77
2022/09/01 07:38:24;;;;;;;3.50;1.33;;;17.70;99.90;;;;;;5126074;28;20083;-73
2022/09/01 07:40:52;;;;;;;2.42;1.08;;;17.80;99.90;;;;;;5124801;28;20323;-72
2022/09/01 07:43:24;;;;;;;1.77;1.65;;;18.00;99.90;;;;;;5124240;28;20367;-71
2022/09/01 07:45:54;;;;;;;0.95;0.95;;;18.10;99.90;;;;;;5125242;28;20391;-75
2022/09/01 07:48:22;;;;;;;1.17;0.82;;;18.10;99.90;;;;;;5120237;28;20059;-77
2022/09/01 07:50:51;;;;;;;1.27;1.00;;;18.00;99.90;;;;;;5115571;28;20475;-73
2022/09/01 07:53:21;;;;;;;0.90;0.90;;;17.90;99.90;;;;;;5107731;28;20212;-75
2022/09/01 07:55:51;;;;;;;9.15;2.13;;;17.70;99.90;;;;;;5124674;28;20104;-73
2022/09/01 07:58:25;;;;;;;1.02;0.82;;;17.80;99.90;;;;;;5104979;28;20100;-72
2022/09/01 08:00:52;;;;;;;1.63;1.25;;;17.80;99.90;;;;;;5121593;28;20210;-72
2022/09/01 08:03:20;;;;;;;1.15;0.80;;;18.00;99.90;;;;;;5124611;28;20048;-72
2022/09/01 08:05:47;;;;;;;0.68;0.68;;;18.10;99.90;;;;;;5125407;28;20180;-74
2022/09/01 08:08:13;;;;;;;0.63;0.63;;;18.10;99.90;;;;;;5125684;28;20007;-73
2022/09/01 08:10:41;;;;;;;0.80;0.80;;;18.10;99.90;;;;;;5125728;28;20055;-77
2022/09/01 08:13:08;;;;;;;2.55;1.02;;;18.10;99.90;;;;;;5124966;28;20082;-77
2022/09/01 08:15:34;;;;;;;0.60;0.60;;;18.10;99.90;;;;;;5124538;28;20056;-76
2022/09/01 08:17:59;;;;;;;0.95;0.95;;;18.20;99.90;;;;;;5121483;28;20047;-72
2022/09/01 08:20:25;;;;;;;1.23;1.13;;;18.30;99.90;;;;;;5102135;28;20023;-77
2022/09/01 08:22:51;;;;;;;1.60;1.38;;;18.60;99.90;;;;;;5125263;28;20020;-75
2022/09/01 08:25:17;;;;;;;0.22;0.22;;;18.80;99.90;;;;;;5125365;28;20026;-74
2022/09/01 08:27:44;;;;;;;1.98;0.75;;;19.80;99.90;;;;;;5124781;28;20015;-76
2022/09/01 08:30:12;;;;;;;0.60;0.60;;;21.20;99.90;;;;;;5124676;28;20035;-76
2022/09/01 08:32:42;;;;;;;2.92;0.73;;;21.70;99.90;;;;;;5124855;28;20312;-73
2022/09/01 08:35:11;;;;;;;1.38;1.00;;;22.40;99.90;;;;;;5125157;28;20020;-72
2022/09/01 08:37:38;;;;;;;1.25;0.60;;;22.90;99.90;;;;;;5124940;28;20339;-73
2022/09/01 08:40:06;;;;;;;1.95;1.17;;;23.10;99.90;;;;;;5124929;28;20039;-73
2022/09/01 08:42:51;;;;;;;1.30;0.80;;;23.10;99.90;;;;;;5124812;28;20016;-73
2022/09/01 08:45:30;;;;;;;0.50;0.50;;;23.30;99.80;;;;;;5123764;28;20018;-78
2022/09/01 08:48:06;;;;;;;0.75;0.75;;;23.50;99.50;;;;;;5124803;28;20050;-78
2022/09/01 08:50:34;;;;;;;1.45;0.80;;;23.70;98.40;;;;;;5118184;28;20077;-72
2022/09/01 08:53:17;;;;;;;0.60;0.60;;;23.70;96.10;;;;;;5105712;28;20047;-76
2022/09/01 08:55:46;;;;;;;2.10;1.05;;;23.20;95.20;;;;;;5102050;28;20095;-72
2022/09/01 08:58:15;;;;;;;0.55;0.55;;;23.00;97.00;;;;;;5123188;28;20026;-73
2022/09/01 09:00:53;;;;;;;0.98;0.70;;;23.10;98.30;;;;;;5124692;28;20023;-79
2022/09/01 09:03:47;;;;;;;1.05;0.73;;;23.20;97.50;;;;;;5124510;28;20050;-76
2022/09/01 09:06:37;;;;;;;0.63;0.50;;;23.50;96.20;;;;;;5124773;28;20027;-78
2022/09/01 09:09:07;;;;;;;0.50;0.50;;;23.30;96.00;;;;;;5119988;28;20049;-75
2022/09/01 09:11:59;;;;;;;1.90;1.67;;;23.20;92.90;;;;;;5118344;28;20026;-77
2022/09/01 09:14:44;;;;;;;2.72;0.47;;;23.10;93.80;;;;;;5124409;28;20008;-75
2022/09/01 09:17:12;;;;;;;0.38;0.38;;;23.10;95.70;;;;;;5124266;28;20011;-75
2022/09/01 09:19:43;;;;;;;0.77;0.70;;;23.10;96.20;;;;;;5105731;28;20038;-78
2022/09/01 09:22:15;;;;;;;0.30;0.30;;;23.00;96.40;;;;;;5124410;28;20064;-74
2022/09/01 09:24:51;;;;;;;0.47;0.45;;;22.70;96.00;;;;;;5118548;28;20015;-72
2022/09/01 09:27:18;;;;;;;0.30;0.30;;;23.10;95.30;;;;;;5113578;28;20047;-74
2022/09/01 09:29:56;;;;;;;0.60;0.60;;;23.00;94.40;;;;;;5097512;28;20039;-73
2022/09/01 09:32:41;;;;;;;2.47;0.95;;;22.90;96.90;;;;;;5106048;28;20019;-74
2022/09/01 09:35:40;;;;;;;0.88;0.65;;;22.90;96.90;;;;;;5124191;28;20047;-75
2022/09/01 09:38:17;;;;;;;1.15;1.10;;;22.80;97.50;;;;;;5109380;28;20031;-73
2022/09/01 09:41:04;;;;;;;1.27;1.00;;;22.80;96.00;;;;;;5120645;28;20014;-79
2022/09/01 09:43:34;;;;;;;0.30;0.30;;;22.90;96.90;;;;;;5121329;28;20019;-78
2022/09/01 09:46:23;;;;;;;3.78;0.93;;;22.80;95.80;;;;;;5124024;28;20022;-74
2022/09/01 09:49:13;;;;;;;0.77;0.77;;;22.60;96.10;;;;;;5110742;28;20050;-78
2022/09/01 09:51:42;;;;;;;0.70;0.70;;;22.60;95.40;;;;;;5124075;28;20085;-72
2022/09/01 09:54:30;;;;;;;0.35;0.35;;;22.80;95.60;;;;;;5105773;28;20022;-72
2022/09/01 09:57:01;;;;;;;0.93;0.60;;;22.50;96.80;;;;;;5123285;28;20253;-73
2022/09/01 09:59:30;;;;;;;0.30;0.30;;;22.40;95.60;;;;;;5122791;28;20024;-73
2022/09/01 10:02:12;;;;;;;0.22;0.22;;;22.60;96.80;;;;;;5123782;28;20035;-78
2022/09/01 10:04:38;;;;;;;0.63;0.55;;;22.80;97.10;;;;;;5095119;28;20039;-78
2022/09/01 10:07:26;;;;;;;0.43;0.35;;;22.80;98.30;;;;;;5113349;28;20020;-75
2022/09/01 10:09:54;;;;;;;1.08;0.45;;;22.90;96.20;;;;;;5094930;28;20032;-75
2022/09/01 10:12:24;;;;;;;0.20;0.20;;;23.10;93.20;;;;;;5115343;28;20016;-78
2022/09/01 10:15:10;;;;;;;1.35;0.40;;;23.10;93.60;;;;;;5119542;28;20360;-72
2022/09/01 10:17:41;;;;;;;0.50;0.47;;;22.80;95.20;;;;;;5124013;28;20019;-78
2022/09/01 10:20:10;;;;;;;0.30;0.30;;;22.80;95.00;;;;;;5123757;28;20044;-78
2022/09/01 10:22:38;;;;;;;0.40;0.32;;;23.00;93.20;;;;;;5105569;28;20019;-77
2022/09/01 10:25:07;;;;;;;0.40;0.40;;;23.00;96.40;;;;;;5123030;28;20020;-78
2022/09/01 10:27:38;;;;;;;2.28;0.52;;;23.20;98.60;;;;;;5123098;28;20020;-77
2022/09/01 10:30:06;;;;;;;0.85;0.55;;;23.40;92.50;;;;;;5125319;28;20035;-73
2022/09/01 10:32:41;;;;;;;0.20;0.20;;;23.40;91.90;;;;;;5106611;28;20264;-74
2022/09/01 10:35:13;;;;;;;1.35;0.93;;;23.20;94.00;;;;;;5120978;28;20020;-77
2022/09/01 10:37:40;;;;;;;1.42;0.60;;;23.10;91.80;;;;;;5101290;28;20023;-75
2022/09/01 10:40:27;;;;;;;0.70;0.68;;;23.20;92.90;;;;;;5116703;28;20023;-72
2022/09/01 10:43:20;;;;;;;0.50;0.50;;;23.40;91.50;;;;;;5123944;28;20326;-78
2022/09/01 10:45:47;;;;;;;0.93;0.47;;;23.70;90.80;;;;;;5123160;28;20036;-72
2022/09/01 10:48:33;;;;;;;0.15;0.15;;;23.90;91.80;;;;;;5125590;28;20026;-78
2022/09/01 10:51:25;;;;;;;0.47;0.38;;;24.60;86.20;;;;;;5105964;28;20127;-74
2022/09/01 10:53:53;;;;;;;0.40;0.38;;;24.90;83.00;;;;;;5090568;28;20038;-76
2022/09/01 10:56:39;;;;;;;0.73;0.60;;;25.20;79.50;;;;;;5124175;28;20090;-76
2022/09/01 10:59:29;;;;;;;0.75;0.50;;;25.30;83.70;;;;;;5097342;28;20023;-77
2022/09/01 11:02:04;;;;;;;0.43;0.43;;;25.40;80.40;;;;;;5126125;28;20154;-76
2022/09/01 11:04:30;;;;;;;0.43;0.43;;;25.70;74.40;;;;;;5109137;28;20023;-76
2022/09/01 11:07:05;;;;;;;0.52;0.52;;;25.40;77.40;;;;;;5120456;28;20310;-78
2022/09/01 11:09:38;;;;;;;1.20;0.70;;;25.20;74.20;;;;;;5116118;28;20084;-78
2022/09/01 11:12:43;;;;;;;1.05;0.98;;;25.20;75.00;;;;;;5122445;28;20051;-78
2022/09/01 11:15:14;;;;;;;0.40;0.40;;;25.60;73.20;;;;;;5095081;28;20035;-75
2022/09/01 11:17:49;;;;;;;0.57;0.43;;;25.80;71.60;;;;;;5107313;28;20016;-78
2022/09/01 11:20:32;;;;;;;0.38;0.38;;;26.00;71.70;;;;;;5124867;28;20416;-79
2022/09/01 11:23:01;;;;;;;4.75;0.85;;;26.20;68.20;;;;;;5116041;28;20035;-78
2022/09/01 11:25:40;;;;;;;0.30;0.30;;;26.80;67.50;;;;;;5115830;28;20019;-74
2022/09/01 11:28:15;;;;;;;0.30;0.20;;;27.00;65.50;;;;;;5116308;28;20028;-79
2022/09/01 11:30:51;;;;;;;0.55;0.38;;;26.70;65.20;;;;;;5115792;28;20027;-78
2022/09/01 11:33:35;;;;;;;1.95;0.40;;;27.00;64.90;;;;;;5097348;28;20072;-76
2022/09/01 11:36:12;;;;;;;0.82;0.82;;;27.30;65.30;;;;;;5115450;28;20028;-76
2022/09/01 11:38:47;;;;;;;0.55;0.50;;;26.80;66.10;;;;;;5097122;28;20510;-76
2022/09/01 11:41:22;;;;;;;0.57;0.35;;;27.00;66.80;;;;;;5115050;28;20422;-75
2022/09/01 11:43:56;;;;;;;2.28;0.93;;;27.30;65.20;;;;;;5115533;28;20020;-74
2022/09/01 11:46:33;;;;;;;4.43;1.73;;;28.00;63.30;;;;;;5115525;28;20023;-74
2022/09/01 11:49:06;;;;;;;2.35;0.75;;;28.70;61.60;;;;;;5115537;28;20114;-77
2022/09/01 11:51:45;;;;;;;1.23;0.77;;;28.80;60.10;;;;;;5115327;28;20027;-76
2022/09/01 11:54:13;;;;;;;0.60;0.60;;;29.20;59.50;;;;;;5115344;28;20016;-74
2022/09/01 11:56:39;;;;;;;0.50;0.50;;;29.70;58.20;;;;;;5115060;28;20028;-73
2022/09/01 11:59:04;;;;;;;0.20;0.20;;;29.70;57.80;;;;;;5115290;28;20113;-74
2022/09/01 12:01:35;;;;;;;0.30;0.30;;;29.60;58.70;;;;;;5115159;28;20024;-74
2022/09/01 12:04:24;;;;;;;2.10;0.30;;;29.50;57.60;;;;;;5096862;28;20039;-76
2022/09/01 12:07:03;;;;;;;0.22;0.22;;;29.90;57.30;;;;;;5115801;28;20095;-75
2022/09/01 12:09:54;;;;;;;2.55;0.75;;;30.20;56.90;;;;;;5114806;28;20131;-73
2022/09/01 12:12:37;;;;;;;0.10;0.10;;;30.40;56.20;;;;;;5110718;28;20127;-73
2022/09/01 12:15:18;;;;;;;1.10;0.93;;;28.50;55.50;;;;;;5117270;28;20023;-76
2022/09/01 12:17:47;;;;;;;0.70;0.30;;;29.60;56.10;;;;;;5114611;28;20371;-78
2022/09/01 12:20:30;;;;;;;0.15;0.15;;;29.20;57.50;;;;;;5114854;28;20087;-78
2022/09/01 12:22:58;;;;;;;1.45;0.25;;;29.00;58.30;;;;;;5114737;28;20058;-78
2022/09/01 12:25:31;;;;;;;0.32;0.32;;;29.20;59.40;;;;;;5114902;28;20047;-74
2022/09/01 12:28:02;;;;;;;0.30;0.30;;;30.00;56.60;;;;;;5115842;28;20028;-73
2022/09/01 12:30:30;;;;;;;0.43;0.43;;;30.20;54.00;;;;;;5125108;28;20031;-78
2022/09/01 12:32:57;;;;;;;0.98;0.43;;;30.60;55.30;;;;;;5106261;28;20015;-74
2022/09/01 12:35:25;;;;;;;1.10;0.52;;;31.00;54.30;;;;;;5103556;28;20098;-75
2022/09/01 12:38:11;;;;;;;0.43;0.43;;;30.60;54.20;;;;;;5123833;28;20031;-76
2022/09/01 12:40:37;;;;;;;0.32;0.30;;;30.40;54.20;;;;;;5125084;28;20021;-76
2022/09/01 12:43:02;;;;;;;0.20;0.20;;;30.30;55.30;;;;;;5121781;28;20080;-74
2022/09/01 12:45:41;;;;;;;0.30;0.25;;;30.70;54.00;;;;;;5118846;28;20023;-72
2022/09/01 12:48:28;;;;;;;1.10;0.80;;;29.90;53.50;;;;;;5124847;28;20015;-76
2022/09/01 12:50:55;;;;;;;1.23;0.20;;;28.40;54.80;;;;;;5125022;28;20023;-72
2022/09/01 12:53:24;;;;;;;0.20;0.20;;;27.80;57.40;;;;;;5124070;28;20038;-75
2022/09/01 12:56:13;;;;;;;;;;;28.70;56.20;;;;;;5106985;28;20015;-74
2022/09/01 12:58:39;;;;;;;;;;;29.40;56.10;;;;;;5112058;28;19899;-74
2022/09/01 13:01:07;;;;;;;0.85;0.52;;;30.20;54.50;;;;;;5122467;28;19906;-73
2022/09/01 13:03:34;;;;;;;0.20;0.20;;;31.30;52.70;;;;;;5106341;28;20039;-76
2022/09/01 13:06:01;;;;;;;0.25;0.20;;;30.50;52.60;;;;;;5106139;28;20040;-76
2022/09/01 13:08:36;;;;;;;0.20;0.20;;;30.20;53.60;;;;;;5124161;28;20043;-72
2022/09/01 13:11:01;;;;;;;0.85;0.80;;;30.30;52.30;;;;;;5117644;28;20504;-74
2022/09/01 13:13:28;;;;;;;0.60;0.60;;;31.00;53.80;;;;;;5119281;28;20106;-76
2022/09/01 13:15:58;;;;;;;1.20;1.15;;;31.50;52.20;;;;;;5120506;28;20090;-76